sensor_id;sensor_type;location;lat;lon;timestamp;temperature;humidity
20035;DHT22;10178;48.034;9.800;2023-12-29T00:01:54;6.60;99.90
20035;DHT22;10178;48.034;9.800;2023-12-29T00:04:20;6.70;99.90
20035;DHT22;10178;48.034;9.800;2023-12-29T00:06:46;6.70;99.90
20035;DHT22;10178;48.034;9.800;2023-12-29T00:09:12;6.80;99.90
20035;DHT22;10178;48.034;9.800;2023-12-29T00:11:38;6.90;99.90
20035;DHT22;10178;48.034;9.800;2023-12-29T00:14:04;6.80;99.90
20035;DHT22;10178;48.034;9.800;2023-12-29T00:16:29;6.80;99.90
20035;DHT22;10178;48.034;9.800;2023-12-29T00:18:55;6.80;99.90
20035;DHT22;10178;48.034;9.800;2023-12-29T00:21:20;6.90;99.90
20035;DHT22;10178;48.034;9.800;2023-12-29T00:23:47;6.90;99.90
20035;DHT22;10178;48.034;9.800;2023-12-29T00:26:16;7.00;99.90
20035;DHT22;10178;48.034;9.800;2023-12-29T00:28:42;6.90;99.90
20035;DHT22;10178;48.034;9.800;2023-12-29T00:31:08;7.00;99.90
20035;DHT22;10178;48.034;9.800;2023-12-29T00:33:34;7.00;99.90
20035;DHT22;10178;48.034;9.800;2023-12-29T00:36:00;7.00;99.90
20035;DHT22;10178;48.034;9.800;2023-12-29T00:38:26;7.00;99.90
20035;DHT22;10178;48.034;9.800;2023-12-29T00:40:53;7.00;99.90
20035;DHT22;10178;48.034;9.800;2023-12-29T00:43:18;6.90;99.90
20035;DHT22;10178;48.034;9.800;2023-12-29T00:45:44;6.90;99.90
20035;DHT22;10178;48.034;9.800;2023-12-29T00:48:09;7.00;99.90
20035;DHT22;10178;48.034;9.800;2023-12-29T00:50:35;7.00;99.90
20035;DHT22;10178;48.034;9.800;2023-12-29T00:53:01;7.00;99.90
20035;DHT22;10178;48.034;9.800;2023-12-29T00:55:26;7.00;99.90
20035;DHT22;10178;48.034;9.800;2023-12-29T00:57:53;7.00;99.90
20035;DHT22;10178;48.034;9.800;2023-12-29T01:00:19;7.00;99.90
20035;DHT22;10178;48.034;9.800;2023-12-29T01:02:45;7.00;99.90
20035;DHT22;10178;48.034;9.800;2023-12-29T01:05:15;7.00;99.90
20035;DHT22;10178;48.034;9.800;2023-12-29T01:07:41;6.90;99.90
20035;DHT22;10178;48.034;9.800;2023-12-29T01:10:07;6.80;99.90
20035;DHT22;10178;48.034;9.800;2023-12-29T01:12:33;6.80;99.90
20035;DHT22;10178;48.034;9.800;2023-12-29T01:14:59;6.70;99.90
20035;DHT22;10178;48.034;9.800;2023-12-29T01:17:24;6.80;99.90
20035;DHT22;10178;48.034;9.800;2023-12-29T01:19:52;6.90;99.90
20035;DHT22;10178;48.034;9.800;2023-12-29T01:22:18;6.90;99.90
20035;DHT22;10178;48.034;9.800;2023-12-29T01:24:44;6.90;99.90
20035;DHT22;10178;48.034;9.800;2023-12-29T01:27:09;6.90;99.90
20035;DHT22;10178;48.034;9.800;2023-12-29T01:29:35;7.00;99.90
20035;DHT22;10178;48.034;9.800;2023-12-29T01:32:01;6.80;99.90
20035;DHT22;10178;48.034;9.800;2023-12-29T01:34:29;6.70;99.90
20035;DHT22;10178;48.034;9.800;2023-12-29T01:36:58;6.90;99.90
20035;DHT22;10178;48.034;9.800;2023-12-29T01:39:24;6.90;99.90
20035;DHT22;10178;48.034;9.800;2023-12-29T01:41:50;6.90;99.90
20035;DHT22;10178;48.034;9.800;2023-12-29T01:44:20;7.00;99.90
20035;DHT22;10178;48.034;9.800;2023-12-29T01:46:47;6.90;99.90
20035;DHT22;10178;48.034;9.800;2023-12-29T01:49:15;6.80;99.90
20035;DHT22;10178;48.034;9.800;2023-12-29T01:51:43;6.80;99.90
20035;DHT22;10178;48.034;9.800;2023-12-29T01:54:11;6.90;99.90
20035;DHT22;10178;48.034;9.800;2023-12-29T01:56:37;6.90;99.90
20035;DHT22;10178;48.034;9.800;2023-12-29T01:59:03;6.90;99.90
20035;DHT22;10178;48.034;9.800;2023-12-29T02:01:29;6.80;99.90
20035;DHT22;10178;48.034;9.800;2023-12-29T02:03:56;6.80;99.90
20035;DHT22;10178;48.034;9.800;2023-12-29T02:06:22;6.70;99.90
20035;DHT22;10178;48.034;9.800;2023-12-29T02:08:47;6.80;99.90
20035;DHT22;10178;48.034;9.800;2023-12-29T02:11:14;6.80;99.90
20035;DHT22;10178;48.034;9.800;2023-12-29T02:13:39;6.80;99.90
20035;DHT22;10178;48.034;9.800;2023-12-29T02:16:12;6.90;99.90
20035;DHT22;10178;48.034;9.800;2023-12-29T02:18:41;6.90;99.90
20035;DHT22;10178;48.034;9.800;2023-12-29T02:21:09;6.80;99.90
20035;DHT22;10178;48.034;9.800;2023-12-29T02:23:34;6.90;99.90
20035;DHT22;10178;48.034;9.800;2023-12-29T02:26:05;6.90;99.90
20035;DHT22;10178;48.034;9.800;2023-12-29T02:28:34;6.90;99.90
20035;DHT22;10178;48.034;9.800;2023-12-29T02:31:24;6.90;99.90
20035;DHT22;10178;48.034;9.800;2023-12-29T02:33:51;6.80;99.90
20035;DHT22;10178;48.034;9.800;2023-12-29T02:36:18;6.90;99.90
20035;DHT22;10178;48.034;9.800;2023-12-29T02:38:44;6.90;99.90
20035;DHT22;10178;48.034;9.800;2023-12-29T02:41:11;6.80;99.90
20035;DHT22;10178;48.034;9.800;2023-12-29T02:43:38;6.90;99.90
20035;DHT22;10178;48.034;9.800;2023-12-29T02:46:04;6.70;99.90
20035;DHT22;10178;48.034;9.800;2023-12-29T02:48:30;6.70;99.90
20035;DHT22;10178;48.034;9.800;2023-12-29T02:50:55;6.90;99.90
20035;DHT22;10178;48.034;9.800;2023-12-29T02:53:21;6.80;99.90
20035;DHT22;10178;48.034;9.800;2023-12-29T02:55:47;6.90;99.90
20035;DHT22;10178;48.034;9.800;2023-12-29T02:58:12;6.90;99.90
20035;DHT22;10178;48.034;9.800;2023-12-29T03:00:38;6.90;99.90
20035;DHT22;10178;48.034;9.800;2023-12-29T03:03:04;6.90;99.90
20035;DHT22;10178;48.034;9.800;2023-12-29T03:05:29;6.90;99.90
20035;DHT22;10178;48.034;9.800;2023-12-29T03:07:55;6.90;99.90
20035;DHT22;10178;48.034;9.800;2023-12-29T03:10:20;7.00;99.90
20035;DHT22;10178;48.034;9.800;2023-12-29T03:12:46;7.00;99.90
20035;DHT22;10178;48.034;9.800;2023-12-29T03:15:12;7.00;99.90
20035;DHT22;10178;48.034;9.800;2023-12-29T03:17:37;7.00;99.90
20035;DHT22;10178;48.034;9.800;2023-12-29T03:20:03;7.00;99.90
20035;DHT22;10178;48.034;9.800;2023-12-29T03:22:30;7.00;99.90
20035;DHT22;10178;48.034;9.800;2023-12-29T03:24:56;6.90;99.90
20035;DHT22;10178;48.034;9.800;2023-12-29T03:27:21;6.90;99.90
20035;DHT22;10178;48.034;9.800;2023-12-29T03:29:47;6.90;99.90
20035;DHT22;10178;48.034;9.800;2023-12-29T03:32:12;6.90;99.90
20035;DHT22;10178;48.034;9.800;2023-12-29T03:34:38;7.00;99.90
20035;DHT22;10178;48.034;9.800;2023-12-29T03:37:04;7.00;99.90
20035;DHT22;10178;48.034;9.800;2023-12-29T03:39:29;7.00;99.90
20035;DHT22;10178;48.034;9.800;2023-12-29T03:41:55;6.90;99.90
20035;DHT22;10178;48.034;9.800;2023-12-29T03:44:20;6.90;99.90
20035;DHT22;10178;48.034;9.800;2023-12-29T03:46:46;6.90;99.90
20035;DHT22;10178;48.034;9.800;2023-12-29T03:49:12;6.90;99.90
20035;DHT22;10178;48.034;9.800;2023-12-29T03:51:37;7.00;99.90
20035;DHT22;10178;48.034;9.800;2023-12-29T03:54:03;6.80;99.90
20035;DHT22;10178;48.034;9.800;2023-12-29T03:56:29;6.90;99.90
20035;DHT22;10178;48.034;9.800;2023-12-29T03:58:54;6.90;99.90
20035;DHT22;10178;48.034;9.800;2023-12-29T04:01:20;6.90;99.90
20035;DHT22;10178;48.034;9.800;2023-12-29T04:03:46;6.80;99.90
20035;DHT22;10178;48.034;9.800;2023-12-29T04:06:11;6.90;99.90
20035;DHT22;10178;48.034;9.800;2023-12-29T04:08:38;6.70;99.90
20035;DHT22;10178;48.034;9.800;2023-12-29T04:11:04;6.80;99.90
20035;DHT22;10178;48.034;9.800;2023-12-29T04:13:31;6.80;99.90
20035;DHT22;10178;48.034;9.800;2023-12-29T04:15:57;6.80;99.90
20035;DHT22;10178;48.034;9.800;2023-12-29T04:18:23;6.70;99.90
20035;DHT22;10178;48.034;9.800;2023-12-29T04:20:50;6.80;99.90
20035;DHT22;10178;48.034;9.800;2023-12-29T04:23:15;6.70;99.90
20035;DHT22;10178;48.034;9.800;2023-12-29T04:25:41;6.70;99.90
20035;DHT22;10178;48.034;9.800;2023-12-29T04:28:08;6.70;99.90
20035;DHT22;10178;48.034;9.800;2023-12-29T04:30:34;6.70;99.90
20035;DHT22;10178;48.034;9.800;2023-12-29T04:33:00;6.60;99.90
20035;DHT22;10178;48.034;9.800;2023-12-29T04:35:25;6.50;99.90
20035;DHT22;10178;48.034;9.800;2023-12-29T04:37:51;6.50;99.90
20035;DHT22;10178;48.034;9.800;2023-12-29T04:40:18;6.60;99.90
20035;DHT22;10178;48.034;9.800;2023-12-29T04:42:43;6.60;99.90
20035;DHT22;10178;48.034;9.800;2023-12-29T04:45:09;6.60;99.90
20035;DHT22;10178;48.034;9.800;2023-12-29T04:47:36;6.60;99.90
20035;DHT22;10178;48.034;9.800;2023-12-29T04:50:01;6.60;99.90
20035;DHT22;10178;48.034;9.800;2023-12-29T04:52:27;6.60;99.90
20035;DHT22;10178;48.034;9.800;2023-12-29T04:54:53;6.50;99.90
20035;DHT22;10178;48.034;9.800;2023-12-29T04:57:18;6.60;99.90
20035;DHT22;10178;48.034;9.800;2023-12-29T04:59:44;6.60;99.90
20035;DHT22;10178;48.034;9.800;2023-12-29T05:02:10;6.50;99.90
20035;DHT22;10178;48.034;9.800;2023-12-29T05:04:35;6.50;99.90
20035;DHT22;10178;48.034;9.800;2023-12-29T05:07:01;6.50;99.90
20035;DHT22;10178;48.034;9.800;2023-12-29T05:09:26;6.50;99.90
20035;DHT22;10178;48.034;9.800;2023-12-29T05:11:52;6.50;99.90
20035;DHT22;10178;48.034;9.800;2023-12-29T05:14:18;6.50;99.90
20035;DHT22;10178;48.034;9.800;2023-12-29T05:16:44;6.50;99.90
20035;DHT22;10178;48.034;9.800;2023-12-29T05:19:10;6.60;99.90
20035;DHT22;10178;48.034;9.800;2023-12-29T05:21:35;6.60;99.90
20035;DHT22;10178;48.034;9.800;2023-12-29T05:24:01;6.60;99.90
20035;DHT22;10178;48.034;9.800;2023-12-29T05:26:26;6.60;99.90
20035;DHT22;10178;48.034;9.800;2023-12-29T05:28:52;6.70;99.90
20035;DHT22;10178;48.034;9.800;2023-12-29T05:31:18;6.70;99.90
20035;DHT22;10178;48.034;9.800;2023-12-29T05:33:46;6.50;99.90
20035;DHT22;10178;48.034;9.800;2023-12-29T05:36:12;6.50;99.90
20035;DHT22;10178;48.034;9.800;2023-12-29T05:38:38;6.40;99.90
20035;DHT22;10178;48.034;9.800;2023-12-29T05:41:04;6.50;99.90
20035;DHT22;10178;48.034;9.800;2023-12-29T05:43:31;6.50;99.90
20035;DHT22;10178;48.034;9.800;2023-12-29T05:46:01;6.50;99.90
20035;DHT22;10178;48.034;9.800;2023-12-29T05:48:26;6.70;99.90
20035;DHT22;10178;48.034;9.800;2023-12-29T05:50:52;6.70;99.90
20035;DHT22;10178;48.034;9.800;2023-12-29T05:53:18;6.60;99.90
20035;DHT22;10178;48.034;9.800;2023-12-29T05:55:44;6.50;99.90
20035;DHT22;10178;48.034;9.800;2023-12-29T05:58:10;6.60;99.90
20035;DHT22;10178;48.034;9.800;2023-12-29T06:00:39;6.60;99.90
20035;DHT22;10178;48.034;9.800;2023-12-29T06:03:05;6.60;99.90
20035;DHT22;10178;48.034;9.800;2023-12-29T06:05:32;6.60;99.90
20035;DHT22;10178;48.034;9.800;2023-12-29T06:07:58;6.50;99.90
20035;DHT22;10178;48.034;9.800;2023-12-29T06:10:24;6.40;99.90
20035;DHT22;10178;48.034;9.800;2023-12-29T06:12:50;6.40;99.90
20035;DHT22;10178;48.034;9.800;2023-12-29T06:15:15;6.40;99.90
20035;DHT22;10178;48.034;9.800;2023-12-29T06:17:41;6.30;99.90
20035;DHT22;10178;48.034;9.800;2023-12-29T06:20:08;6.30;99.90
20035;DHT22;10178;48.034;9.800;2023-12-29T06:22:39;6.40;99.90
20035;DHT22;10178;48.034;9.800;2023-12-29T06:25:08;6.50;99.90
20035;DHT22;10178;48.034;9.800;2023-12-29T06:27:33;6.50;99.90
20035;DHT22;10178;48.034;9.800;2023-12-29T06:30:03;6.50;99.90
20035;DHT22;10178;48.034;9.800;2023-12-29T06:32:29;6.30;99.90
20035;DHT22;10178;48.034;9.800;2023-12-29T06:34:55;6.10;99.90
20035;DHT22;10178;48.034;9.800;2023-12-29T06:37:21;5.90;99.90
20035;DHT22;10178;48.034;9.800;2023-12-29T06:39:46;5.90;99.90
20035;DHT22;10178;48.034;9.800;2023-12-29T06:42:12;5.80;99.90
20035;DHT22;10178;48.034;9.800;2023-12-29T06:44:37;5.70;99.90
20035;DHT22;10178;48.034;9.800;2023-12-29T06:47:04;5.50;99.90
20035;DHT22;10178;48.034;9.800;2023-12-29T06:49:31;5.30;99.90
20035;DHT22;10178;48.034;9.800;2023-12-29T06:51:57;5.10;99.90
20035;DHT22;10178;48.034;9.800;2023-12-29T06:54:22;5.00;99.90
20035;DHT22;10178;48.034;9.800;2023-12-29T06:56:48;4.90;99.90
20035;DHT22;10178;48.034;9.800;2023-12-29T06:59:14;4.90;99.90
20035;DHT22;10178;48.034;9.800;2023-12-29T07:01:39;4.90;99.90
20035;DHT22;10178;48.034;9.800;2023-12-29T07:04:06;5.10;99.90
20035;DHT22;10178;48.034;9.800;2023-12-29T07:06:38;5.20;99.90
20035;DHT22;10178;48.034;9.800;2023-12-29T07:09:04;5.20;99.90
20035;DHT22;10178;48.034;9.800;2023-12-29T07:11:30;5.20;99.90
20035;DHT22;10178;48.034;9.800;2023-12-29T07:13:55;5.20;99.90
20035;DHT22;10178;48.034;9.800;2023-12-29T07:16:21;5.10;99.90
20035;DHT22;10178;48.034;9.800;2023-12-29T07:18:48;5.10;99.90
20035;DHT22;10178;48.034;9.800;2023-12-29T07:21:14;5.20;99.90
20035;DHT22;10178;48.034;9.800;2023-12-29T07:23:40;5.20;99.90
20035;DHT22;10178;48.034;9.800;2023-12-29T07:26:07;5.40;99.90
20035;DHT22;10178;48.034;9.800;2023-12-29T07:28:33;5.60;99.90
20035;DHT22;10178;48.034;9.800;2023-12-29T07:30:59;5.70;99.90
20035;DHT22;10178;48.034;9.800;2023-12-29T07:33:25;5.80;99.90
20035;DHT22;10178;48.034;9.800;2023-12-29T07:35:51;6.00;99.90
20035;DHT22;10178;48.034;9.800;2023-12-29T07:38:17;6.10;99.90
20035;DHT22;10178;48.034;9.800;2023-12-29T07:40:43;6.10;99.90
20035;DHT22;10178;48.034;9.800;2023-12-29T07:43:09;6.20;99.90
20035;DHT22;10178;48.034;9.800;2023-12-29T07:45:34;6.30;99.90
20035;DHT22;10178;48.034;9.800;2023-12-29T07:48:02;6.30;99.90
20035;DHT22;10178;48.034;9.800;2023-12-29T07:50:28;6.30;99.90
20035;DHT22;10178;48.034;9.800;2023-12-29T07:52:54;6.30;99.90
20035;DHT22;10178;48.034;9.800;2023-12-29T07:55:19;6.30;99.90
20035;DHT22;10178;48.034;9.800;2023-12-29T07:57:45;6.30;99.90
20035;DHT22;10178;48.034;9.800;2023-12-29T08:00:14;6.40;99.90
20035;DHT22;10178;48.034;9.800;2023-12-29T08:02:40;6.40;99.90
20035;DHT22;10178;48.034;9.800;2023-12-29T08:05:06;6.50;99.90
20035;DHT22;10178;48.034;9.800;2023-12-29T08:07:36;6.50;99.90
20035;DHT22;10178;48.034;9.800;2023-12-29T08:10:04;6.60;99.90
20035;DHT22;10178;48.034;9.800;2023-12-29T08:12:30;6.60;99.90
20035;DHT22;10178;48.034;9.800;2023-12-29T08:14:55;6.70;99.90
20035;DHT22;10178;48.034;9.800;2023-12-29T08:17:22;6.70;99.90
20035;DHT22;10178;48.034;9.800;2023-12-29T08:19:47;6.90;99.90
20035;DHT22;10178;48.034;9.800;2023-12-29T08:22:13;6.80;99.90
20035;DHT22;10178;48.034;9.800;2023-12-29T08:24:40;6.80;99.90
20035;DHT22;10178;48.034;9.800;2023-12-29T08:27:09;6.90;99.90
20035;DHT22;10178;48.034;9.800;2023-12-29T08:29:35;6.90;99.90
20035;DHT22;10178;48.034;9.800;2023-12-29T08:32:01;7.00;99.90
20035;DHT22;10178;48.034;9.800;2023-12-29T08:34:27;6.90;99.90
20035;DHT22;10178;48.034;9.800;2023-12-29T08:36:53;7.00;99.90
20035;DHT22;10178;48.034;9.800;2023-12-29T08:39:18;7.00;99.90
20035;DHT22;10178;48.034;9.800;2023-12-29T08:41:44;7.00;99.90
20035;DHT22;10178;48.034;9.800;2023-12-29T08:44:10;7.10;99.90
20035;DHT22;10178;48.034;9.800;2023-12-29T08:46:35;7.10;99.90
20035;DHT22;10178;48.034;9.800;2023-12-29T08:49:01;7.10;99.90
20035;DHT22;10178;48.034;9.800;2023-12-29T08:51:27;7.20;99.90
20035;DHT22;10178;48.034;9.800;2023-12-29T08:53:54;7.20;99.90
20035;DHT22;10178;48.034;9.800;2023-12-29T08:56:19;7.20;99.90
20035;DHT22;10178;48.034;9.800;2023-12-29T08:58:45;7.20;99.90
20035;DHT22;10178;48.034;9.800;2023-12-29T09:01:12;7.30;99.90
20035;DHT22;10178;48.034;9.800;2023-12-29T09:03:37;7.30;99.90
20035;DHT22;10178;48.034;9.800;2023-12-29T09:06:04;7.30;99.90
20035;DHT22;10178;48.034;9.800;2023-12-29T09:08:30;7.30;99.90
20035;DHT22;10178;48.034;9.800;2023-12-29T09:10:55;7.30;99.90
20035;DHT22;10178;48.034;9.800;2023-12-29T09:13:21;7.20;99.90
20035;DHT22;10178;48.034;9.800;2023-12-29T09:15:50;7.30;99.90
20035;DHT22;10178;48.034;9.800;2023-12-29T09:18:16;7.30;99.90
20035;DHT22;10178;48.034;9.800;2023-12-29T09:20:42;7.30;99.90
20035;DHT22;10178;48.034;9.800;2023-12-29T09:23:07;7.30;99.90
20035;DHT22;10178;48.034;9.800;2023-12-29T09:25:33;7.30;99.90
20035;DHT22;10178;48.034;9.800;2023-12-29T09:27:58;7.30;99.90
20035;DHT22;10178;48.034;9.800;2023-12-29T09:30:24;7.40;99.90
20035;DHT22;10178;48.034;9.800;2023-12-29T09:32:50;7.40;99.90
20035;DHT22;10178;48.034;9.800;2023-12-29T09:35:15;7.40;99.90
20035;DHT22;10178;48.034;9.800;2023-12-29T09:37:42;7.40;99.90
20035;DHT22;10178;48.034;9.800;2023-12-29T09:40:10;7.40;99.90
20035;DHT22;10178;48.034;9.800;2023-12-29T09:42:37;7.40;99.90
20035;DHT22;10178;48.034;9.800;2023-12-29T09:45:07;7.40;99.90
20035;DHT22;10178;48.034;9.800;2023-12-29T09:47:37;7.40;99.90
20035;DHT22;10178;48.034;9.800;2023-12-29T09:50:05;7.40;99.90
20035;DHT22;10178;48.034;9.800;2023-12-29T09:52:31;7.40;99.90
20035;DHT22;10178;48.034;9.800;2023-12-29T09:54:57;7.50;99.90
20035;DHT22;10178;48.034;9.800;2023-12-29T09:57:23;7.50;99.90
20035;DHT22;10178;48.034;9.800;2023-12-29T09:59:50;7.50;99.90
20035;DHT22;10178;48.034;9.800;2023-12-29T10:02:20;7.60;99.90
20035;DHT22;10178;48.034;9.800;2023-12-29T10:04:47;7.50;99.90
20035;DHT22;10178;48.034;9.800;2023-12-29T10:07:18;7.70;99.90
20035;DHT22;10178;48.034;9.800;2023-12-29T10:09:45;7.70;99.90
20035;DHT22;10178;48.034;9.800;2023-12-29T10:12:13;7.70;99.90
20035;DHT22;10178;48.034;9.800;2023-12-29T10:23:22;7.70;99.90
20035;DHT22;10178;48.034;9.800;2023-12-29T10:25:48;7.80;99.90
20035;DHT22;10178;48.034;9.800;2023-12-29T10:28:16;7.90;99.90
20035;DHT22;10178;48.034;9.800;2023-12-29T10:30:43;7.90;99.90
20035;DHT22;10178;48.034;9.800;2023-12-29T10:33:09;8.00;99.90
20035;DHT22;10178;48.034;9.800;2023-12-29T10:35:35;7.90;99.90
20035;DHT22;10178;48.034;9.800;2023-12-29T10:38:12;8.00;99.90
20035;DHT22;10178;48.034;9.800;2023-12-29T10:40:39;8.00;99.90
20035;DHT22;10178;48.034;9.800;2023-12-29T10:43:05;7.90;99.90
20035;DHT22;10178;48.034;9.800;2023-12-29T10:45:33;8.00;99.90
20035;DHT22;10178;48.034;9.800;2023-12-29T10:48:02;8.00;99.90
20035;DHT22;10178;48.034;9.800;2023-12-29T10:50:28;7.90;99.90
20035;DHT22;10178;48.034;9.800;2023-12-29T10:53:14;8.00;99.90
20035;DHT22;10178;48.034;9.800;2023-12-29T10:55:40;8.00;99.90
20035;DHT22;10178;48.034;9.800;2023-12-29T10:58:05;8.10;99.90
20035;DHT22;10178;48.034;9.800;2023-12-29T11:00:32;8.20;99.90
20035;DHT22;10178;48.034;9.800;2023-12-29T11:03:00;8.30;99.90
20035;DHT22;10178;48.034;9.800;2023-12-29T11:05:26;8.30;99.90
20035;DHT22;10178;48.034;9.800;2023-12-29T11:07:53;8.30;99.90
20035;DHT22;10178;48.034;9.800;2023-12-29T11:10:23;8.30;99.90
20035;DHT22;10178;48.034;9.800;2023-12-29T11:12:49;8.30;99.90
20035;DHT22;10178;48.034;9.800;2023-12-29T11:15:15;8.40;99.90
20035;DHT22;10178;48.034;9.800;2023-12-29T11:17:42;8.40;99.90
20035;DHT22;10178;48.034;9.800;2023-12-29T11:20:26;8.60;99.90
20035;DHT22;10178;48.034;9.800;2023-12-29T11:22:53;8.60;99.90
20035;DHT22;10178;48.034;9.800;2023-12-29T11:25:19;8.60;99.90
20035;DHT22;10178;48.034;9.800;2023-12-29T11:27:45;8.60;99.90
20035;DHT22;10178;48.034;9.800;2023-12-29T11:30:11;8.60;99.90
20035;DHT22;10178;48.034;9.800;2023-12-29T11:32:53;8.60;99.90
20035;DHT22;10178;48.034;9.800;2023-12-29T11:35:26;8.70;99.90
20035;DHT22;10178;48.034;9.800;2023-12-29T11:38:03;8.70;99.90
20035;DHT22;10178;48.034;9.800;2023-12-29T11:43:13;8.80;99.90
20035;DHT22;10178;48.034;9.800;2023-12-29T11:45:40;8.80;99.90
20035;DHT22;10178;48.034;9.800;2023-12-29T11:48:06;8.80;99.90
20035;DHT22;10178;48.034;9.800;2023-12-29T11:50:36;8.80;99.90
20035;DHT22;10178;48.034;9.800;2023-12-29T11:53:08;8.90;99.90
20035;DHT22;10178;48.034;9.800;2023-12-29T11:55:38;8.90;99.90
20035;DHT22;10178;48.034;9.800;2023-12-29T11:58:23;8.90;99.90
20035;DHT22;10178;48.034;9.800;2023-12-29T12:00:49;8.90;99.90
20035;DHT22;10178;48.034;9.800;2023-12-29T12:03:16;8.90;99.90
20035;DHT22;10178;48.034;9.800;2023-12-29T12:05:49;8.90;99.90
20035;DHT22;10178;48.034;9.800;2023-12-29T12:08:32;8.90;99.90
20035;DHT22;10178;48.034;9.800;2023-12-29T12:13:55;8.90;99.90
20035;DHT22;10178;48.034;9.800;2023-12-29T12:19:10;9.10;99.90
20035;DHT22;10178;48.034;9.800;2023-12-29T12:21:37;9.10;99.90
20035;DHT22;10178;48.034;9.800;2023-12-29T12:24:04;9.00;99.90
20035;DHT22;10178;48.034;9.800;2023-12-29T12:26:34;9.00;99.90
20035;DHT22;10178;48.034;9.800;2023-12-29T12:29:00;8.90;99.90
20035;DHT22;10178;48.034;9.800;2023-12-29T12:31:26;9.00;99.90
20035;DHT22;10178;48.034;9.800;2023-12-29T12:33:56;9.10;99.90
20035;DHT22;10178;48.034;9.800;2023-12-29T12:36:22;9.10;99.90
20035;DHT22;10178;48.034;9.800;2023-12-29T12:38:53;9.10;99.90
20035;DHT22;10178;48.034;9.800;2023-12-29T12:41:20;9.00;99.90
20035;DHT22;10178;48.034;9.800;2023-12-29T12:43:55;9.10;99.90
20035;DHT22;10178;48.034;9.800;2023-12-29T12:46:23;9.20;99.90
20035;DHT22;10178;48.034;9.800;2023-12-29T12:48:51;9.20;99.90
20035;DHT22;10178;48.034;9.800;2023-12-29T12:51:19;9.10;99.90
20035;DHT22;10178;48.034;9.800;2023-12-29T12:53:46;9.10;99.90
20035;DHT22;10178;48.034;9.800;2023-12-29T12:56:14;9.20;99.90
20035;DHT22;10178;48.034;9.800;2023-12-29T12:58:40;9.30;99.90
20035;DHT22;10178;48.034;9.800;2023-12-29T13:01:06;9.30;99.90
20035;DHT22;10178;48.034;9.800;2023-12-29T13:03:32;9.30;99.90
20035;DHT22;10178;48.034;9.800;2023-12-29T13:05:58;9.30;99.90
20035;DHT22;10178;48.034;9.800;2023-12-29T13:08:25;9.20;99.90
20035;DHT22;10178;48.034;9.800;2023-12-29T13:10:51;9.30;99.90
20035;DHT22;10178;48.034;9.800;2023-12-29T13:13:17;9.30;99.90
20035;DHT22;10178;48.034;9.800;2023-12-29T13:15:48;9.30;99.90
20035;DHT22;10178;48.034;9.800;2023-12-29T13:18:14;9.30;99.90
20035;DHT22;10178;48.034;9.800;2023-12-29T13:20:47;9.20;99.90
20035;DHT22;10178;48.034;9.800;2023-12-29T13:23:13;9.20;99.90
20035;DHT22;10178;48.034;9.800;2023-12-29T13:25:39;9.20;99.90
20035;DHT22;10178;48.034;9.800;2023-12-29T13:28:06;9.10;99.90
20035;DHT22;10178;48.034;9.800;2023-12-29T13:30:33;9.10;99.90
20035;DHT22;10178;48.034;9.800;2023-12-29T13:32:59;9.10;99.90
20035;DHT22;10178;48.034;9.800;2023-12-29T13:35:37;9.10;99.90
20035;DHT22;10178;48.034;9.800;2023-12-29T13:38:11;9.10;99.90
20035;DHT22;10178;48.034;9.800;2023-12-29T13:40:54;9.10;99.90
20035;DHT22;10178;48.034;9.800;2023-12-29T13:43:21;9.10;99.90
20035;DHT22;10178;48.034;9.800;2023-12-29T13:45:48;9.10;99.90
20035;DHT22;10178;48.034;9.800;2023-12-29T13:48:14;9.10;99.90
20035;DHT22;10178;48.034;9.800;2023-12-29T13:50:50;9.20;99.90
20035;DHT22;10178;48.034;9.800;2023-12-29T13:53:20;9.10;99.90
20035;DHT22;10178;48.034;9.800;2023-12-29T13:55:46;9.10;99.90
20035;DHT22;10178;48.034;9.800;2023-12-29T13:58:12;9.20;99.90
20035;DHT22;10178;48.034;9.800;2023-12-29T14:00:43;9.10;99.90
20035;DHT22;10178;48.034;9.800;2023-12-29T14:03:30;9.10;99.90
20035;DHT22;10178;48.034;9.800;2023-12-29T14:06:04;9.10;99.90
20035;DHT22;10178;48.034;9.800;2023-12-29T14:08:38;9.10;99.90
20035;DHT22;10178;48.034;9.800;2023-12-29T14:11:08;9.10;99.90
20035;DHT22;10178;48.034;9.800;2023-12-29T14:13:34;9.10;99.90
20035;DHT22;10178;48.034;9.800;2023-12-29T14:16:01;9.10;99.90
20035;DHT22;10178;48.034;9.800;2023-12-29T14:18:42;9.10;99.90
20035;DHT22;10178;48.034;9.800;2023-12-29T14:21:32;9.10;99.90
20035;DHT22;10178;48.034;9.800;2023-12-29T14:24:14;9.00;99.90
20035;DHT22;10178;48.034;9.800;2023-12-29T14:26:55;9.10;99.90
20035;DHT22;10178;48.034;9.800;2023-12-29T14:29:25;9.10;99.90
20035;DHT22;10178;48.034;9.800;2023-12-29T14:31:51;9.20;99.90
20035;DHT22;10178;48.034;9.800;2023-12-29T14:34:17;9.20;99.90
20035;DHT22;10178;48.034;9.800;2023-12-29T14:36:43;9.30;99.90
20035;DHT22;10178;48.034;9.800;2023-12-29T14:39:09;9.20;99.90
20035;DHT22;10178;48.034;9.800;2023-12-29T14:41:35;9.20;99.90
20035;DHT22;10178;48.034;9.800;2023-12-29T14:44:01;9.20;99.90
20035;DHT22;10178;48.034;9.800;2023-12-29T14:46:27;9.20;99.90
20035;DHT22;10178;48.034;9.800;2023-12-29T14:48:54;9.20;99.90
20035;DHT22;10178;48.034;9.800;2023-12-29T14:51:19;9.30;99.90
20035;DHT22;10178;48.034;9.800;2023-12-29T14:53:48;9.20;99.90
20035;DHT22;10178;48.034;9.800;2023-12-29T14:56:15;9.30;99.90
20035;DHT22;10178;48.034;9.800;2023-12-29T14:58:41;9.20;99.90
20035;DHT22;10178;48.034;9.800;2023-12-29T15:01:08;9.40;99.90
20035;DHT22;10178;48.034;9.800;2023-12-29T15:03:34;9.40;99.90
20035;DHT22;10178;48.034;9.800;2023-12-29T15:06:00;9.40;99.90
20035;DHT22;10178;48.034;9.800;2023-12-29T15:08:26;9.30;99.90
20035;DHT22;10178;48.034;9.800;2023-12-29T15:10:53;9.30;99.90
20035;DHT22;10178;48.034;9.800;2023-12-29T15:13:19;9.40;99.90
20035;DHT22;10178;48.034;9.800;2023-12-29T15:15:45;9.40;99.90
20035;DHT22;10178;48.034;9.800;2023-12-29T15:18:10;9.20;99.90
20035;DHT22;10178;48.034;9.800;2023-12-29T15:20:36;9.10;99.90
20035;DHT22;10178;48.034;9.800;2023-12-29T15:23:02;9.00;99.90
20035;DHT22;10178;48.034;9.800;2023-12-29T15:25:28;8.90;99.90
20035;DHT22;10178;48.034;9.800;2023-12-29T15:27:54;8.90;99.90
20035;DHT22;10178;48.034;9.800;2023-12-29T15:30:20;9.10;99.90
20035;DHT22;10178;48.034;9.800;2023-12-29T15:32:45;9.10;99.90
20035;DHT22;10178;48.034;9.800;2023-12-29T15:35:11;9.00;99.90
20035;DHT22;10178;48.034;9.800;2023-12-29T15:37:37;8.90;99.90
20035;DHT22;10178;48.034;9.800;2023-12-29T15:40:03;8.80;99.90
20035;DHT22;10178;48.034;9.800;2023-12-29T15:42:29;8.70;99.90
20035;DHT22;10178;48.034;9.800;2023-12-29T15:44:55;8.70;99.90
20035;DHT22;10178;48.034;9.800;2023-12-29T15:47:21;8.70;99.90
20035;DHT22;10178;48.034;9.800;2023-12-29T15:49:46;8.70;99.90
20035;DHT22;10178;48.034;9.800;2023-12-29T15:52:12;8.80;99.90
20035;DHT22;10178;48.034;9.800;2023-12-29T15:54:38;8.70;99.90
20035;DHT22;10178;48.034;9.800;2023-12-29T15:57:04;8.70;99.90
20035;DHT22;10178;48.034;9.800;2023-12-29T15:59:33;8.80;99.90
20035;DHT22;10178;48.034;9.800;2023-12-29T16:01:59;8.80;99.90